Time;durP1;ratioP1;P1;durP2;ratioP2;P2;SDS_P1;SDS_P2;PMS_P1;PMS_P2;Temp;Humidity;BMP_temperature;BMP_pressure;BME280_temperature;BME280_humidity;BME280_pressure;Samples;Min_cycle;Max_cycle;Signal;HPM_P1;HPM_P2
2021/07/01 00:00:21;;;;;;;0.40;0.20;;;14.30;99.90;;;;;;5079570;28;20388;-81
2021/07/01 00:02:47;;;;;;;0.40;0.20;;;14.30;99.90;;;;;;5111453;28;20376;-81
2021/07/01 00:05:14;;;;;;;0.40;0.30;;;14.40;99.90;;;;;;5092584;28;20455;-82
2021/07/01 00:07:41;;;;;;;0.40;0.20;;;14.40;99.90;;;;;;5082036;28;20951;-83
2021/07/01 00:10:10;;;;;;;0.40;0.20;;;14.40;99.90;;;;;;5094084;28;20776;-80
2021/07/01 00:12:36;;;;;;;0.40;0.20;;;14.40;99.90;;;;;;5110877;28;20472;-82
2021/07/01 00:15:04;;;;;;;0.40;0.20;;;14.30;99.90;;;;;;5102049;28;20394;-82
2021/07/01 00:17:30;;;;;;;0.40;0.30;;;14.30;99.90;;;;;;5090862;28;20742;-83
2021/07/01 00:19:56;;;;;;;0.40;0.20;;;14.30;99.90;;;;;;5091856;28;20374;-82
2021/07/01 00:22:21;;;;;;;0.40;0.20;;;14.20;99.90;;;;;;5091928;28;20847;-81
2021/07/01 00:24:47;;;;;;;0.40;0.20;;;14.20;99.90;;;;;;5095206;28;20416;-84
2021/07/01 00:27:12;;;;;;;0.40;0.20;;;14.10;99.90;;;;;;5112203;28;20412;-80
2021/07/01 00:29:38;;;;;;;0.40;0.30;;;14.00;99.90;;;;;;5074992;28;20417;-80
2021/07/01 00:32:04;;;;;;;0.40;0.20;;;14.10;99.90;;;;;;5101505;28;20431;-81
2021/07/01 00:34:32;;;;;;;0.40;0.20;;;14.10;99.90;;;;;;5108159;28;20397;-83
2021/07/01 00:36:57;;;;;;;0.40;0.30;;;14.10;99.90;;;;;;5091505;28;20401;-84
2021/07/01 00:39:23;;;;;;;0.40;0.30;;;14.10;99.90;;;;;;5081317;28;20408;-80
2021/07/01 00:41:49;;;;;;;0.40;0.20;;;14.10;99.90;;;;;;5090003;28;20382;-84
2021/07/01 00:44:14;;;;;;;0.40;0.20;;;14.10;99.90;;;;;;5091114;28;20511;-81
2021/07/01 00:46:40;;;;;;;0.40;0.25;;;14.10;99.90;;;;;;5090483;28;20427;-84
2021/07/01 00:49:06;;;;;;;0.40;0.20;;;14.10;99.90;;;;;;5091333;28;20398;-85
2021/07/01 00:51:31;;;;;;;0.40;0.30;;;14.00;99.90;;;;;;5102828;28;20400;-87
2021/07/01 00:53:57;;;;;;;0.40;0.20;;;13.90;99.90;;;;;;5082817;28;20799;-85
2021/07/01 00:56:24;;;;;;;0.40;0.30;;;14.00;99.90;;;;;;5093235;28;20384;-84
2021/07/01 00:58:53;;;;;;;0.40;0.30;;;14.10;99.90;;;;;;5091465;28;20402;-85
2021/07/01 01:01:21;;;;;;;0.40;0.20;;;14.00;99.90;;;;;;5072957;28;20402;-86
2021/07/01 01:03:47;;;;;;;0.40;0.20;;;13.90;99.90;;;;;;5072470;28;20688;-85
2021/07/01 01:06:13;;;;;;;0.40;0.30;;;13.90;99.90;;;;;;5090688;28;20404;-85
2021/07/01 01:08:39;;;;;;;0.40;0.20;;;14.00;99.90;;;;;;5104822;28;20407;-82
2021/07/01 01:11:04;;;;;;;0.40;0.20;;;14.00;99.90;;;;;;5103751;28;20446;-83
2021/07/01 01:13:30;;;;;;;0.40;0.20;;;14.00;99.90;;;;;;5091126;28;20731;-83
2021/07/01 01:15:58;;;;;;;0.40;0.20;;;14.00;99.90;;;;;;5090327;28;20490;-82
2021/07/01 01:18:24;;;;;;;0.40;0.20;;;14.10;99.90;;;;;;5091007;28;20382;-80
2021/07/01 01:20:51;;;;;;;0.40;0.30;;;14.10;99.90;;;;;;5072405;28;20519;-82
2021/07/01 01:23:17;;;;;;;0.40;0.30;;;14.10;99.90;;;;;;5072631;28;20395;-82
2021/07/01 01:25:46;;;;;;;0.40;0.20;;;14.10;99.90;;;;;;5104318;28;20407;-82
2021/07/01 01:28:12;;;;;;;0.40;0.20;;;14.00;99.90;;;;;;5115551;28;20752;-81
2021/07/01 01:30:39;;;;;;;0.40;0.30;;;14.00;99.90;;;;;;5094462;28;20402;-83
2021/07/01 01:33:09;;;;;;;0.40;0.20;;;14.00;99.90;;;;;;5105278;28;20399;-82
2021/07/01 01:35:35;;;;;;;0.40;0.20;;;14.00;99.90;;;;;;5095385;28;20918;-82
2021/07/01 01:38:02;;;;;;;0.40;0.20;;;14.10;99.90;;;;;;5115253;28;20417;-82
2021/07/01 01:40:28;;;;;;;0.40;0.20;;;14.10;99.90;;;;;;5104446;28;20897;-83
2021/07/01 01:42:54;;;;;;;0.40;0.30;;;14.20;99.90;;;;;;5093691;28;20427;-81
2021/07/01 01:45:19;;;;;;;0.40;0.20;;;14.10;99.90;;;;;;5094647;28;20374;-80
2021/07/01 01:47:47;;;;;;;0.40;0.20;;;14.00;99.90;;;;;;5093934;28;20764;-80
2021/07/01 01:50:17;;;;;;;0.40;0.30;;;14.00;99.90;;;;;;5095480;28;20424;-79
2021/07/01 01:52:42;;;;;;;0.40;0.20;;;14.00;99.90;;;;;;5108436;28;20429;-81
2021/07/01 01:55:10;;;;;;;0.40;0.20;;;14.20;99.90;;;;;;5076259;28;20862;-80
2021/07/01 01:57:36;;;;;;;0.40;0.20;;;14.20;99.90;;;;;;5093549;28;20378;-80
2021/07/01 02:00:03;;;;;;;0.40;0.20;;;14.20;99.90;;;;;;5094281;28;20469;-79
2021/07/01 02:02:28;;;;;;;0.40;0.20;;;14.10;99.90;;;;;;5076126;28;20401;-80
2021/07/01 02:04:54;;;;;;;0.40;0.20;;;14.10;99.90;;;;;;5075035;28;20412;-80
2021/07/01 02:07:19;;;;;;;0.40;0.20;;;14.10;99.90;;;;;;5094104;28;20846;-81
2021/07/01 02:09:45;;;;;;;0.40;0.20;;;14.00;99.90;;;;;;5093457;28;20405;-81
2021/07/01 02:12:11;;;;;;;0.40;0.20;;;14.00;99.90;;;;;;5105897;28;20865;-80
2021/07/01 02:14:36;;;;;;;0.40;0.20;;;14.00;99.90;;;;;;5109416;28;20439;-83
2021/07/01 02:17:03;;;;;;;0.40;0.20;;;14.00;99.90;;;;;;5094428;28;20381;-80
2021/07/01 02:19:28;;;;;;;0.40;0.20;;;14.10;99.90;;;;;;5094499;28;20461;-80
2021/07/01 02:21:54;;;;;;;0.40;0.20;;;14.10;99.90;;;;;;5093628;28;20414;-79
2021/07/01 02:24:19;;;;;;;0.40;0.20;;;14.10;99.90;;;;;;5093734;28;20464;-79
2021/07/01 02:26:45;;;;;;;0.40;0.20;;;14.10;99.90;;;;;;5074871;28;20402;-81
2021/07/01 02:29:11;;;;;;;0.40;0.20;;;14.10;99.90;;;;;;5093719;28;20594;-81
2021/07/01 02:31:37;;;;;;;0.40;0.30;;;14.10;99.90;;;;;;5093336;28;20374;-81
2021/07/01 02:34:02;;;;;;;0.40;0.20;;;14.10;99.90;;;;;;5090006;28;20431;-81
2021/07/01 02:36:28;;;;;;;0.40;0.20;;;14.10;99.90;;;;;;5107920;28;20818;-82
2021/07/01 02:38:54;;;;;;;0.40;0.20;;;14.10;99.90;;;;;;5092648;28;20453;-82
2021/07/01 02:41:19;;;;;;;0.40;0.30;;;14.20;99.90;;;;;;5110596;28;20454;-83
2021/07/01 02:43:45;;;;;;;0.40;0.20;;;14.20;99.90;;;;;;5112864;28;20384;-81
2021/07/01 02:46:11;;;;;;;0.40;0.30;;;14.20;99.90;;;;;;5113686;28;20372;-82
2021/07/01 02:48:36;;;;;;;0.40;0.30;;;14.10;99.90;;;;;;5113910;28;20499;-82
2021/07/01 02:51:02;;;;;;;0.40;0.20;;;14.10;99.90;;;;;;5112319;28;20373;-80
2021/07/01 02:53:29;;;;;;;0.40;0.20;;;14.10;99.90;;;;;;5094389;28;20393;-83
2021/07/01 02:55:55;;;;;;;0.40;0.20;;;14.20;99.90;;;;;;5092958;28;20490;-83
2021/07/01 02:58:20;;;;;;;0.40;0.20;;;14.20;99.90;;;;;;5110659;28;20430;-83
2021/07/01 03:00:46;;;;;;;0.40;0.20;;;14.10;99.90;;;;;;5112869;28;20377;-83
2021/07/01 03:03:11;;;;;;;0.40;0.30;;;14.20;99.90;;;;;;5113315;28;20372;-83
2021/07/01 03:05:37;;;;;;;0.40;0.20;;;14.30;99.90;;;;;;5113472;28;20403;-83
2021/07/01 03:08:03;;;;;;;0.40;0.20;;;14.10;99.90;;;;;;5082286;28;20394;-84
2021/07/01 03:10:28;;;;;;;0.40;0.20;;;14.20;99.90;;;;;;5093420;28;20463;-84
2021/07/01 03:12:54;;;;;;;0.40;0.30;;;14.20;99.90;;;;;;5111833;28;20400;-83
2021/07/01 03:15:20;;;;;;;0.40;0.20;;;14.20;99.90;;;;;;5113740;28;20860;-84
2021/07/01 03:17:45;;;;;;;0.40;0.30;;;14.30;99.90;;;;;;5106649;28;20473;-83
2021/07/01 03:20:11;;;;;;;0.40;0.20;;;14.30;99.90;;;;;;5093698;28;20389;-84
2021/07/01 03:22:37;;;;;;;0.40;0.20;;;14.20;99.90;;;;;;5075245;28;20436;-84
2021/07/01 03:25:03;;;;;;;0.40;0.20;;;14.20;99.90;;;;;;5092135;28;20434;-86
2021/07/01 03:27:28;;;;;;;0.40;0.30;;;14.20;99.90;;;;;;5075123;28;20679;-84
2021/07/01 03:29:54;;;;;;;0.40;0.20;;;14.20;99.90;;;;;;5112761;28;20883;-85
2021/07/01 03:32:19;;;;;;;0.40;0.30;;;14.20;99.90;;;;;;5101545;28;20386;-85
2021/07/01 03:34:45;;;;;;;0.40;0.20;;;14.10;99.90;;;;;;5080446;28;20396;-85
2021/07/01 03:37:11;;;;;;;0.40;0.30;;;14.20;99.90;;;;;;5113294;28;20380;-84
2021/07/01 03:39:37;;;;;;;0.40;0.20;;;14.20;99.90;;;;;;5097682;28;20471;-84
2021/07/01 03:42:03;;;;;;;0.40;0.20;;;14.20;99.90;;;;;;5092249;28;20374;-84
2021/07/01 03:44:28;;;;;;;0.40;0.20;;;14.30;99.90;;;;;;5092683;28;20378;-84
2021/07/01 03:46:54;;;;;;;0.40;0.20;;;14.20;99.90;;;;;;5073361;28;20386;-84
2021/07/01 03:49:20;;;;;;;0.40;0.30;;;14.20;99.90;;;;;;5094938;28;20409;-84
2021/07/01 03:51:46;;;;;;;0.60;0.50;;;14.30;99.90;;;;;;5104935;28;20885;-84
2021/07/01 03:54:11;;;;;;;0.40;0.20;;;14.20;99.90;;;;;;5092264;28;20378;-84
2021/07/01 03:56:43;;;;;;;0.40;0.20;;;14.20;99.90;;;;;;5092979;28;20398;-83
2021/07/01 03:59:13;;;;;;;0.40;0.20;;;14.30;99.90;;;;;;5074326;28;20394;-83
2021/07/01 04:01:40;;;;;;;0.40;0.20;;;14.20;99.90;;;;;;5111410;28;20415;-84
2021/07/01 04:04:05;;;;;;;0.40;0.20;;;14.30;99.90;;;;;;5080869;28;20811;-84
2021/07/01 04:06:32;;;;;;;0.40;0.20;;;14.30;99.90;;;;;;5100503;28;20391;-83
2021/07/01 04:08:57;;;;;;;0.40;0.20;;;14.20;99.90;;;;;;5096420;28;20919;-83
2021/07/01 04:11:23;;;;;;;0.40;0.20;;;14.30;99.90;;;;;;5098274;28;20398;-84
2021/07/01 04:13:49;;;;;;;0.40;0.20;;;14.20;99.90;;;;;;5076020;28;20683;-84
2021/07/01 04:16:15;;;;;;;0.40;0.20;;;14.30;99.90;;;;;;5096091;28;20398;-83
2021/07/01 04:18:40;;;;;;;0.40;0.30;;;14.30;99.90;;;;;;5114617;28;20745;-83
2021/07/01 04:21:06;;;;;;;0.40;0.20;;;14.30;99.90;;;;;;5085066;28;20402;-84
2021/07/01 04:23:32;;;;;;;0.40;0.20;;;14.40;99.90;;;;;;5099590;28;20385;-83
2021/07/01 04:25:59;;;;;;;0.40;0.22;;;14.40;99.90;;;;;;5113079;28;20399;-84
2021/07/01 04:28:24;;;;;;;0.40;0.20;;;14.40;99.90;;;;;;5113885;28;20772;-83
2021/07/01 04:30:51;;;;;;;0.40;0.20;;;14.40;99.90;;;;;;5088999;28;20438;-84
2021/07/01 04:33:17;;;;;;;0.40;0.20;;;14.40;99.90;;;;;;5088428;28;20408;-85
2021/07/01 04:35:48;;;;;;;0.40;0.20;;;14.50;99.90;;;;;;5073836;28;20396;-86
2021/07/01 04:38:15;;;;;;;0.40;0.25;;;14.50;99.90;;;;;;5072086;28;20439;-83
2021/07/01 04:40:41;;;;;;;0.40;0.30;;;14.50;99.90;;;;;;5089033;28;20382;-84
2021/07/01 04:43:07;;;;;;;0.40;0.30;;;14.40;99.90;;;;;;5086354;28;20387;-83
2021/07/01 04:45:32;;;;;;;0.50;0.50;;;14.50;99.90;;;;;;5088786;28;20707;-83
2021/07/01 04:47:58;;;;;;;0.40;0.20;;;14.50;99.90;;;;;;5087721;28;21054;-84
2021/07/01 04:50:24;;;;;;;0.40;0.20;;;14.50;99.90;;;;;;5087916;28;21078;-83
2021/07/01 04:52:50;;;;;;;0.40;0.30;;;14.50;99.90;;;;;;5086943;28;20382;-85
2021/07/01 04:55:16;;;;;;;0.40;0.20;;;14.50;99.90;;;;;;5069426;28;21234;-83
2021/07/01 04:57:42;;;;;;;0.40;0.20;;;14.50;99.90;;;;;;5088967;28;20396;-84
2021/07/01 05:00:08;;;;;;;0.40;0.20;;;14.60;99.90;;;;;;5086921;28;20403;-85
2021/07/01 05:02:33;;;;;;;0.40;0.20;;;14.60;99.90;;;;;;5086991;28;20396;-84
2021/07/01 05:04:59;;;;;;;0.40;0.20;;;14.50;99.90;;;;;;5088735;28;20459;-84
2021/07/01 05:07:24;;;;;;;0.40;0.20;;;14.50;99.90;;;;;;5089142;28;20880;-85
2021/07/01 05:09:50;;;;;;;0.40;0.20;;;14.50;99.90;;;;;;5069013;28;20538;-84
2021/07/01 05:12:16;;;;;;;0.40;0.22;;;14.60;99.90;;;;;;5086992;28;20436;-84
2021/07/01 05:14:41;;;;;;;0.40;0.20;;;14.60;99.90;;;;;;5069095;28;20399;-85
2021/07/01 05:17:07;;;;;;;0.40;0.20;;;14.60;99.90;;;;;;5069408;28;20392;-84
2021/07/01 05:19:32;;;;;;;0.40;0.20;;;14.60;99.90;;;;;;5069985;28;20754;-84
2021/07/01 05:21:58;;;;;;;0.40;0.20;;;14.60;99.90;;;;;;5069978;28;20519;-84
2021/07/01 05:24:24;;;;;;;0.40;0.20;;;14.50;99.90;;;;;;5087328;28;20383;-85
2021/07/01 05:26:50;;;;;;;0.40;0.20;;;14.60;99.90;;;;;;5069160;28;20746;-87
2021/07/01 05:29:16;;;;;;;0.40;0.20;;;14.70;99.90;;;;;;5069140;28;20412;-83
2021/07/01 05:31:42;;;;;;;0.40;0.20;;;14.70;99.90;;;;;;5069258;28;20413;-84
2021/07/01 05:34:07;;;;;;;0.40;0.20;;;14.70;99.90;;;;;;5086816;28;21213;-84
2021/07/01 05:36:33;;;;;;;0.40;0.20;;;14.70;99.90;;;;;;5070950;28;20936;-86
2021/07/01 05:38:59;;;;;;;0.40;0.20;;;14.70;99.90;;;;;;5087608;28;20501;-81
2021/07/01 05:41:24;;;;;;;0.40;0.30;;;14.80;99.90;;;;;;5087725;28;20434;-83
2021/07/01 05:43:50;;;;;;;1.00;0.60;;;14.80;99.90;;;;;;5085091;28;20421;-85
2021/07/01 05:46:16;;;;;;;0.40;0.30;;;14.90;99.90;;;;;;5087169;28;20445;-83
2021/07/01 05:48:42;;;;;;;0.40;0.20;;;14.90;99.90;;;;;;5088277;28;20461;-85
2021/07/01 05:51:09;;;;;;;0.40;0.20;;;14.90;99.90;;;;;;5090601;28;20876;-81
2021/07/01 05:54:00;;;;;;;0.40;0.20;;;14.90;99.90;;;;;;5094133;28;20390;-82
2021/07/01 05:56:20;;;;;;;0.40;0.20;;;14.90;99.90;;;;;;5090677;28;20398;-83
2021/07/01 05:58:46;;;;;;;0.40;0.20;;;14.90;99.90;;;;;;5109524;28;20384;-83
2021/07/01 06:01:12;;;;;;;0.40;0.30;;;14.90;99.90;;;;;;5095988;28;20477;-82
2021/07/01 06:03:37;;;;;;;0.40;0.20;;;14.90;99.90;;;;;;5094109;28;20475;-82
2021/07/01 06:06:13;;;;;;;0.40;0.20;;;15.00;99.90;;;;;;5109601;28;20481;-81
2021/07/01 06:08:40;;;;;;;0.40;0.20;;;15.00;99.90;;;;;;5090067;28;20461;-82
2021/07/01 06:11:07;;;;;;;0.40;0.20;;;15.00;99.90;;;;;;5105672;28;20388;-80
2021/07/01 06:13:43;;;;;;;0.40;0.20;;;15.00;99.90;;;;;;5105392;28;20439;-80
2021/07/01 06:16:15;;;;;;;0.40;0.20;;;15.10;99.90;;;;;;5092600;28;20850;-81
2021/07/01 06:18:48;;;;;;;0.40;0.30;;;15.10;99.90;;;;;;5111775;28;20397;-80
2021/07/01 06:21:15;;;;;;;0.40;0.20;;;15.00;99.90;;;;;;5113077;28;21080;-81
2021/07/01 06:23:41;;;;;;;0.40;0.20;;;15.10;99.90;;;;;;5113546;28;20381;-82
2021/07/01 06:26:10;;;;;;;0.40;0.20;;;15.10;99.90;;;;;;5111865;28;20655;-82
2021/07/01 06:28:42;;;;;;;0.40;0.20;;;15.00;99.90;;;;;;5113812;28;20453;-81
2021/07/01 06:31:09;;;;;;;0.40;0.20;;;15.10;99.90;;;;;;5112788;28;20888;-82
2021/07/01 06:33:39;;;;;;;0.40;0.20;;;15.10;99.90;;;;;;5088067;28;20496;-79
2021/07/01 06:36:14;;;;;;;0.40;0.30;;;15.10;99.90;;;;;;5092849;28;20432;-79
2021/07/01 06:38:54;;;;;;;0.40;0.20;;;15.10;99.90;;;;;;5074902;28;20500;-79
2021/07/01 06:41:21;;;;;;;0.40;0.30;;;15.10;99.90;;;;;;5088115;28;20468;-77
2021/07/01 06:43:48;;;;;;;0.40;0.20;;;15.10;99.90;;;;;;5107873;28;20431;-79
2021/07/01 06:46:17;;;;;;;0.40;0.20;;;15.10;99.90;;;;;;5093044;28;20379;-81
2021/07/01 06:48:45;;;;;;;0.40;0.20;;;15.10;99.90;;;;;;5092833;28;20489;-79
2021/07/01 06:51:12;;;;;;;0.40;0.30;;;15.10;99.90;;;;;;5085716;28;20878;-77
2021/07/01 06:53:40;;;;;;;0.40;0.30;;;15.10;99.90;;;;;;5107161;28;20750;-80
2021/07/01 06:56:06;;;;;;;0.40;0.20;;;15.10;99.90;;;;;;5092931;28;20383;-83
2021/07/01 06:58:32;;;;;;;0.40;0.20;;;16.00;99.90;;;;;;5108498;28;20741;-81
2021/07/01 07:00:58;;;;;;;0.40;0.30;;;15.20;99.90;;;;;;5112875;28;20388;-76
2021/07/01 07:03:26;;;;;;;0.40;0.30;;;15.20;99.90;;;;;;5113375;28;20388;-77
2021/07/01 07:05:56;;;;;;;0.40;0.20;;;15.30;99.90;;;;;;5113962;28;20395;-83
2021/07/01 07:08:22;;;;;;;0.40;0.20;;;15.40;99.90;;;;;;5097008;28;20421;-82
2021/07/01 07:10:49;;;;;;;0.40;0.30;;;15.40;99.90;;;;;;5094453;28;20737;-78
2021/07/01 07:13:15;;;;;;;0.40;0.20;;;15.60;99.90;;;;;;5093461;28;20621;-82
2021/07/01 07:15:43;;;;;;;0.40;0.20;;;15.60;99.90;;;;;;5075034;28;20386;-82
2021/07/01 07:18:31;;;;;;;0.40;0.30;;;15.70;99.90;;;;;;5085454;28;20397;-77
2021/07/01 07:20:59;;;;;;;0.40;0.20;;;15.80;99.90;;;;;;5106081;28;20398;-82
2021/07/01 07:23:32;;;;;;;0.40;0.20;;;15.90;99.90;;;;;;5092746;28;20916;-77
2021/07/01 07:26:00;;;;;;;0.40;0.20;;;15.90;99.90;;;;;;5110222;28;20520;-79
2021/07/01 07:28:26;;;;;;;0.40;0.30;;;16.10;99.90;;;;;;5113358;28;20817;-80
2021/07/01 07:30:54;;;;;;;0.40;0.30;;;16.00;99.90;;;;;;5113632;28;20377;-82
2021/07/01 07:33:24;;;;;;;0.40;0.25;;;16.10;99.90;;;;;;5094662;28;20452;-83
2021/07/01 07:35:50;;;;;;;0.40;0.20;;;16.10;99.90;;;;;;5099381;28;20471;-77
2021/07/01 07:38:18;;;;;;;0.40;0.30;;;16.30;99.90;;;;;;5092533;28;20609;-77
2021/07/01 07:40:44;;;;;;;0.40;0.30;;;16.40;99.90;;;;;;5092902;28;20419;-78
2021/07/01 07:43:13;;;;;;;0.40;0.30;;;16.30;99.90;;;;;;5092173;28;20941;-82
2021/07/01 07:45:40;;;;;;;0.40;0.20;;;16.30;99.90;;;;;;5093555;28;20382;-81
2021/07/01 07:48:06;;;;;;;0.40;0.30;;;16.40;99.90;;;;;;5091867;28;20455;-83
2021/07/01 07:50:35;;;;;;;0.40;0.20;;;16.60;99.90;;;;;;5091717;28;20396;-81
2021/07/01 07:53:01;;;;;;;0.40;0.20;;;16.60;99.90;;;;;;5094557;28;20420;-86
2021/07/01 07:55:30;;;;;;;0.40;0.20;;;16.60;99.90;;;;;;5092364;28;20382;-78
2021/07/01 07:57:58;;;;;;;0.40;0.20;;;16.60;99.90;;;;;;5093186;28;20398;-81
2021/07/01 08:00:27;;;;;;;0.40;0.20;;;16.70;99.90;;;;;;5074564;28;20398;-81
2021/07/01 08:02:54;;;;;;;0.40;0.30;;;16.70;99.90;;;;;;5092557;28;20382;-82
2021/07/01 08:05:30;;;;;;;0.40;0.20;;;16.80;99.90;;;;;;5091600;28;20389;-82
2021/07/01 08:07:58;;;;;;;0.40;0.20;;;16.80;99.90;;;;;;5092409;28;20858;-79
2021/07/01 08:10:32;;;;;;;0.40;0.30;;;16.80;99.90;;;;;;5073994;28;20408;-77
2021/07/01 08:13:05;;;;;;;0.40;0.20;;;16.70;99.90;;;;;;5092327;28;20846;-82
2021/07/01 08:15:33;;;;;;;0.40;0.30;;;16.70;99.90;;;;;;5074065;28;20738;-77
2021/07/01 08:18:00;;;;;;;0.40;0.20;;;16.60;99.90;;;;;;5091938;28;20382;-88
2021/07/01 08:20:26;;;;;;;0.40;0.30;;;16.70;99.90;;;;;;5092179;28;20378;-81
2021/07/01 08:22:54;;;;;;;0.40;0.20;;;16.70;99.90;;;;;;5092020;28;20484;-79
2021/07/01 08:25:22;;;;;;;0.40;0.20;;;16.80;99.90;;;;;;5073035;28;20398;-82
2021/07/01 08:27:49;;;;;;;0.40;0.20;;;16.70;99.90;;;;;;5092072;28;20382;-79
2021/07/01 08:30:18;;;;;;;0.40;0.20;;;16.80;99.90;;;;;;5073147;28;20431;-79
2021/07/01 08:32:46;;;;;;;0.40;0.20;;;16.80;99.90;;;;;;5091839;28;20385;-79
2021/07/01 08:35:15;;;;;;;0.40;0.22;;;16.80;99.90;;;;;;5091449;28;20386;-83
2021/07/01 08:37:44;;;;;;;0.40;0.20;;;16.90;99.90;;;;;;5073627;28;20397;-79
2021/07/01 08:40:13;;;;;;;0.40;0.20;;;16.90;99.90;;;;;;5072584;28;21011;-82
2021/07/01 08:42:39;;;;;;;0.40;0.20;;;17.10;99.90;;;;;;5091626;28;20390;-80
2021/07/01 08:45:35;;;;;;;0.40;0.20;;;17.10;99.90;;;;;;5090394;28;20423;-80
2021/07/01 08:48:11;;;;;;;0.40;0.20;;;17.40;99.90;;;;;;5082838;28;20878;-81
2021/07/01 08:50:39;;;;;;;0.40;0.30;;;17.60;99.90;;;;;;5072557;28;20398;-84
2021/07/01 08:53:22;;;;;;;0.40;0.20;;;17.70;99.90;;;;;;5109193;28;20387;-86
2021/07/01 08:55:51;;;;;;;0.40;0.20;;;17.50;99.90;;;;;;5111411;28;20391;-80
2021/07/01 08:58:24;;;;;;;0.40;0.20;;;17.50;99.90;;;;;;5092211;28;20392;-79
2021/07/01 09:00:50;;;;;;;0.40;0.30;;;17.60;99.90;;;;;;5111417;28;20376;-82
2021/07/01 09:03:17;;;;;;;0.40;0.30;;;17.70;99.90;;;;;;5092580;28;20388;-79
2021/07/01 09:05:46;;;;;;;0.40;0.20;;;17.70;99.90;;;;;;5093032;28;20414;-79
2021/07/01 09:08:14;;;;;;;0.40;0.20;;;17.60;99.90;;;;;;5093051;28;20396;-82
2021/07/01 09:10:53;;;;;;;0.40;0.22;;;17.70;99.90;;;;;;5111638;28;20462;-79
2021/07/01 09:13:22;;;;;;;0.40;0.30;;;17.70;99.90;;;;;;5111176;28;20395;-79
2021/07/01 09:15:50;;;;;;;0.40;0.20;;;17.90;99.90;;;;;;5093273;28;20439;-78
2021/07/01 09:18:26;;;;;;;0.40;0.20;;;17.90;99.90;;;;;;5111085;28;20433;-79
2021/07/01 09:20:55;;;;;;;0.40;0.30;;;18.00;99.90;;;;;;5111652;28;20391;-78
2021/07/01 09:23:22;;;;;;;0.40;0.20;;;18.00;99.90;;;;;;5110916;28;20475;-81
2021/07/01 09:25:52;;;;;;;0.40;0.20;;;18.10;99.90;;;;;;5092446;28;20455;-79
2021/07/01 09:28:18;;;;;;;0.40;0.20;;;18.00;99.90;;;;;;5110794;28;20410;-82
2021/07/01 09:30:44;;;;;;;0.40;0.30;;;18.00;99.90;;;;;;5111653;28;20461;-80
2021/07/01 09:33:16;;;;;;;0.40;0.20;;;18.00;99.90;;;;;;5111040;28;20808;-78
2021/07/01 09:35:43;;;;;;;0.40;0.20;;;17.90;99.90;;;;;;5111140;28;20745;-78
2021/07/01 09:38:11;;;;;;;0.40;0.30;;;17.90;99.90;;;;;;5110292;28;20383;-78
2021/07/01 09:40:37;;;;;;;0.40;0.20;;;17.80;99.90;;;;;;5110981;28;20429;-78
2021/07/01 09:43:16;;;;;;;0.40;0.20;;;17.80;99.90;;;;;;5111441;28;20406;-79
2021/07/01 09:45:45;;;;;;;0.40;0.20;;;17.80;99.90;;;;;;5095116;28;20437;-79
2021/07/01 09:48:14;;;;;;;0.63;0.45;;;18.00;99.90;;;;;;5115166;28;20377;-79
2021/07/01 09:50:46;;;;;;;0.40;0.20;;;18.10;99.90;;;;;;5114363;28;20410;-77
2021/07/01 09:53:31;;;;;;;0.40;0.30;;;18.40;99.90;;;;;;5095354;28;20788;-81
2021/07/01 09:56:05;;;;;;;0.40;0.30;;;18.70;99.90;;;;;;5095218;28;20396;-77
2021/07/01 09:58:48;;;;;;;0.40;0.30;;;18.80;99.90;;;;;;5094333;28;20409;-76
2021/07/01 10:01:32;;;;;;;0.40;0.30;;;18.80;99.90;;;;;;5076109;28;20394;-79
2021/07/01 10:04:01;;;;;;;0.40;0.20;;;18.60;99.90;;;;;;5094845;28;20443;-79
2021/07/01 10:06:27;;;;;;;0.40;0.30;;;18.70;99.90;;;;;;5094352;28;20807;-77
2021/07/01 10:08:54;;;;;;;0.40;0.30;;;18.50;99.90;;;;;;5094349;28;20414;-78
2021/07/01 10:11:32;;;;;;;0.40;0.30;;;18.50;99.90;;;;;;5093653;28;20892;-80
2021/07/01 10:14:19;;;;;;;0.40;0.20;;;18.60;99.90;;;;;;5094353;28;20381;-79
2021/07/01 10:16:45;;;;;;;0.40;0.20;;;18.80;99.90;;;;;;5094593;28;20374;-77
2021/07/01 10:19:18;;;;;;;0.40;0.20;;;18.50;99.90;;;;;;5093973;28;20401;-79
2021/07/01 10:21:44;;;;;;;0.40;0.30;;;18.50;99.90;;;;;;5094354;28;20370;-77
2021/07/01 10:24:19;;;;;;;0.40;0.20;;;18.40;99.90;;;;;;5094150;28;20382;-85
2021/07/01 10:26:48;;;;;;;0.40;0.27;;;18.30;99.90;;;;;;5093874;28;20398;-79
2021/07/01 10:29:15;;;;;;;0.40;0.25;;;18.20;99.90;;;;;;5093191;28;20398;-81
2021/07/01 10:32:05;;;;;;;0.40;0.30;;;18.00;99.90;;;;;;5094282;28;20413;-77
2021/07/01 10:34:43;;;;;;;0.40;0.30;;;17.90;99.90;;;;;;5093490;28;20527;-80
2021/07/01 10:37:19;;;;;;;0.40;0.30;;;17.80;99.90;;;;;;5076057;28;20398;-77
2021/07/01 10:39:48;;;;;;;0.40;0.20;;;17.90;99.90;;;;;;5094189;28;20469;-80
2021/07/01 10:42:18;;;;;;;0.40;0.20;;;18.10;99.90;;;;;;5075022;28;20390;-81
2021/07/01 10:44:45;;;;;;;0.40;0.20;;;18.30;99.90;;;;;;5094037;28;20410;-79
2021/07/01 10:47:27;;;;;;;0.40;0.40;;;18.60;99.90;;;;;;5093883;28;20374;-79
2021/07/01 10:49:53;;;;;;;0.40;0.20;;;18.40;99.90;;;;;;5093975;28;20410;-79
2021/07/01 10:52:19;;;;;;;0.40;0.30;;;18.50;99.90;;;;;;5105021;28;20778;-78
2021/07/01 10:54:57;;;;;;;0.40;0.20;;;18.30;99.90;;;;;;5114408;28;20375;-82
2021/07/01 10:57:28;;;;;;;0.40;0.20;;;18.50;99.90;;;;;;5113494;28;20369;-81
2021/07/01 10:59:55;;;;;;;0.40;0.20;;;18.50;99.90;;;;;;5096057;28;20730;-80
2021/07/01 11:02:31;;;;;;;0.40;0.20;;;18.50;99.90;;;;;;5095152;28;20766;-80
2021/07/01 11:04:59;;;;;;;0.40;0.30;;;18.60;99.90;;;;;;5095615;28;20403;-81
2021/07/01 11:07:26;;;;;;;0.40;0.30;;;18.80;99.90;;;;;;5113259;28;20480;-81
2021/07/01 11:09:57;;;;;;;0.40;0.20;;;19.10;99.90;;;;;;5113737;28;20798;-79
2021/07/01 11:12:26;;;;;;;0.40;0.30;;;19.10;99.90;;;;;;5113328;28;20733;-80
2021/07/01 11:14:55;;;;;;;0.40;0.20;;;19.10;99.90;;;;;;5113828;28;20388;-79
2021/07/01 11:17:35;;;;;;;0.40;0.30;;;19.60;99.90;;;;;;5094943;28;20392;-81
2021/07/01 11:20:14;;;;;;;0.40;0.30;;;20.20;98.00;;;;;;5113618;28;20872;-76
2021/07/01 11:22:51;;;;;;;0.40;0.30;;;20.30;94.10;;;;;;5113727;28;20438;-78
2021/07/01 11:25:42;;;;;;;0.40;0.30;;;20.00;94.20;;;;;;5112678;28;20449;-77
2021/07/01 11:28:21;;;;;;;0.40;0.30;;;20.30;92.70;;;;;;5113248;28;20857;-77
2021/07/01 11:31:02;;;;;;;0.40;0.20;;;19.80;93.00;;;;;;5113352;28;20438;-75
2021/07/01 11:33:29;;;;;;;0.40;0.20;;;19.90;93.10;;;;;;5113024;28;20377;-79
2021/07/01 11:36:15;;;;;;;0.40;0.20;;;19.80;92.90;;;;;;5095035;28;20404;-75
2021/07/01 11:38:46;;;;;;;0.40;0.20;;;19.60;93.90;;;;;;5113383;28;20389;-81
2021/07/01 11:41:16;;;;;;;0.40;0.30;;;19.40;95.10;;;;;;5113511;28;20457;-76
2021/07/01 11:43:43;;;;;;;0.40;0.30;;;19.40;95.50;;;;;;5113180;28;20789;-78
2021/07/01 11:46:09;;;;;;;0.40;0.30;;;19.40;96.70;;;;;;5113291;28;20380;-77
2021/07/01 11:48:36;;;;;;;0.40;0.20;;;19.20;96.70;;;;;;5112222;28;21068;-77
2021/07/01 11:51:09;;;;;;;0.40;0.30;;;20.40;96.50;;;;;;5112075;28;20403;-77
2021/07/01 11:53:35;;;;;;;0.40;0.30;;;21.30;92.90;;;;;;5091877;28;20384;-75
2021/07/01 11:56:01;;;;;;;0.40;0.30;;;20.50;91.20;;;;;;5092443;28;20374;-78
2021/07/01 11:58:31;;;;;;;0.40;0.20;;;19.70;93.70;;;;;;5091931;28;20435;-78
2021/07/01 12:00:57;;;;;;;0.40;0.30;;;19.40;95.30;;;;;;5092400;28;20382;-77
2021/07/01 12:03:22;;;;;;;0.40;0.30;;;19.10;96.30;;;;;;5091048;28;20831;-78
2021/07/01 12:05:51;;;;;;;0.40;0.20;;;19.10;97.40;;;;;;5091441;28;20386;-78
2021/07/01 12:08:17;;;;;;;0.40;0.20;;;19.00;98.80;;;;;;5091710;28;20382;-81
2021/07/01 12:10:44;;;;;;;0.40;0.20;;;19.00;98.70;;;;;;5092253;28;20381;-79
2021/07/01 12:13:31;;;;;;;0.40;0.30;;;19.10;99.40;;;;;;5092343;28;20371;-79
2021/07/01 12:16:05;;;;;;;0.40;0.20;;;19.10;99.30;;;;;;5092078;28;20389;-81
2021/07/01 12:18:53;;;;;;;0.40;0.30;;;19.00;99.10;;;;;;5091057;28;20704;-80
2021/07/01 12:21:30;;;;;;;0.40;0.20;;;18.90;99.90;;;;;;5091755;28;20416;-83
2021/07/01 12:23:59;;;;;;;0.40;0.30;;;18.80;99.70;;;;;;5091675;28;20450;-77
2021/07/01 12:26:35;;;;;;;0.40;0.30;;;18.70;99.90;;;;;;5090874;28;20890;-80
2021/07/01 12:29:04;;;;;;;0.40;0.30;;;18.80;99.20;;;;;;5091572;28;20430;-79
2021/07/01 12:31:30;;;;;;;0.40;0.20;;;18.80;99.90;;;;;;5074118;28;20390;-79
2021/07/01 12:34:09;;;;;;;0.40;0.20;;;18.90;99.70;;;;;;5091372;28;20382;-80
2021/07/01 12:36:42;;;;;;;0.40;0.25;;;19.00;99.10;;;;;;5090874;28;20396;-77
2021/07/01 12:39:13;;;;;;;0.40;0.30;;;19.80;97.60;;;;;;5091361;28;20386;-76
2021/07/01 12:41:41;;;;;;;0.40;0.30;;;20.70;95.50;;;;;;5090559;28;20409;-78
2021/07/01 12:44:17;;;;;;;0.40;0.30;;;21.40;94.60;;;;;;5072942;28;20500;-79
2021/07/01 12:46:44;;;;;;;0.40;0.30;;;22.00;93.30;;;;;;5090504;28;20370;-78
2021/07/01 12:49:21;;;;;;;0.40;0.30;;;21.80;92.50;;;;;;5073035;28;20409;-79
2021/07/01 12:51:53;;;;;;;0.40;0.20;;;21.60;91.60;;;;;;5090864;28;20394;-79
2021/07/01 12:54:25;;;;;;;0.40;0.30;;;21.20;91.20;;;;;;5091329;28;20382;-79